sensor_id;sensor_type;location;lat;lon;timestamp;P1;durP1;ratioP1;P2;durP2;ratioP2
79585;SDS011;69054;50.866;4.636;2023-10-13T00:01:23;43.50;;;20.80;;
79585;SDS011;69054;50.866;4.636;2023-10-13T00:03:49;43.92;;;20.42;;
79585;SDS011;69054;50.866;4.636;2023-10-13T00:06:16;41.22;;;20.60;;
79585;SDS011;69054;50.866;4.636;2023-10-13T00:08:43;39.88;;;19.95;;
79585;SDS011;69054;50.866;4.636;2023-10-13T00:11:12;39.15;;;20.33;;
79585;SDS011;69054;50.866;4.636;2023-10-13T00:13:38;44.92;;;21.55;;
79585;SDS011;69054;50.866;4.636;2023-10-13T00:16:17;39.45;;;18.85;;
79585;SDS011;69054;50.866;4.636;2023-10-13T00:18:46;43.10;;;19.27;;
79585;SDS011;69054;50.866;4.636;2023-10-13T00:21:19;46.85;;;22.13;;
79585;SDS011;69054;50.866;4.636;2023-10-13T00:23:55;44.30;;;20.48;;
79585;SDS011;69054;50.866;4.636;2023-10-13T00:26:22;47.88;;;22.55;;
79585;SDS011;69054;50.866;4.636;2023-10-13T00:29:01;41.50;;;20.33;;
79585;SDS011;69054;50.866;4.636;2023-10-13T00:31:37;43.40;;;19.70;;
79585;SDS011;69054;50.866;4.636;2023-10-13T00:34:05;41.55;;;21.13;;
79585;SDS011;69054;50.866;4.636;2023-10-13T00:36:41;40.30;;;19.27;;
79585;SDS011;69054;50.866;4.636;2023-10-13T00:39:25;42.70;;;21.30;;
79585;SDS011;69054;50.866;4.636;2023-10-13T00:41:53;42.60;;;19.30;;
79585;SDS011;69054;50.866;4.636;2023-10-13T00:49:32;37.65;;;16.77;;
79585;SDS011;69054;50.866;4.636;2023-10-13T00:52:01;37.63;;;18.52;;
79585;SDS011;69054;50.866;4.636;2023-10-13T00:54:26;40.08;;;19.00;;
79585;SDS011;69054;50.866;4.636;2023-10-13T00:56:52;37.58;;;19.55;;
79585;SDS011;69054;50.866;4.636;2023-10-13T00:59:23;38.25;;;18.05;;
79585;SDS011;69054;50.866;4.636;2023-10-13T01:01:50;40.50;;;19.30;;
79585;SDS011;69054;50.866;4.636;2023-10-13T01:04:20;37.55;;;18.23;;
79585;SDS011;69054;50.866;4.636;2023-10-13T01:06:49;37.67;;;19.08;;
79585;SDS011;69054;50.866;4.636;2023-10-13T01:09:16;35.28;;;18.90;;
79585;SDS011;69054;50.866;4.636;2023-10-13T01:11:49;37.85;;;19.50;;
79585;SDS011;69054;50.866;4.636;2023-10-13T01:14:18;39.25;;;19.63;;
79585;SDS011;69054;50.866;4.636;2023-10-13T01:16:45;38.25;;;19.67;;
79585;SDS011;69054;50.866;4.636;2023-10-13T01:19:14;36.67;;;18.60;;
79585;SDS011;69054;50.866;4.636;2023-10-13T01:21:44;35.40;;;18.13;;
79585;SDS011;69054;50.866;4.636;2023-10-13T01:24:10;38.17;;;19.20;;
79585;SDS011;69054;50.866;4.636;2023-10-13T01:26:41;34.83;;;18.00;;
79585;SDS011;69054;50.866;4.636;2023-10-13T01:29:07;36.95;;;18.20;;
79585;SDS011;69054;50.866;4.636;2023-10-13T01:31:43;35.50;;;18.35;;
79585;SDS011;69054;50.866;4.636;2023-10-13T01:34:13;33.90;;;17.48;;
79585;SDS011;69054;50.866;4.636;2023-10-13T01:36:49;35.00;;;17.25;;
79585;SDS011;69054;50.866;4.636;2023-10-13T01:39:18;39.25;;;17.17;;
79585;SDS011;69054;50.866;4.636;2023-10-13T01:41:56;32.75;;;17.10;;
79585;SDS011;69054;50.866;4.636;2023-10-13T01:44:22;34.90;;;16.60;;
79585;SDS011;69054;50.866;4.636;2023-10-13T01:46:48;43.13;;;18.75;;
79585;SDS011;69054;50.866;4.636;2023-10-13T01:49:13;35.22;;;17.85;;
79585;SDS011;69054;50.866;4.636;2023-10-13T01:51:42;37.53;;;19.00;;
79585;SDS011;69054;50.866;4.636;2023-10-13T01:54:07;32.10;;;16.85;;
79585;SDS011;69054;50.866;4.636;2023-10-13T01:56:37;33.20;;;17.17;;
79585;SDS011;69054;50.866;4.636;2023-10-13T01:59:08;35.25;;;16.92;;
79585;SDS011;69054;50.866;4.636;2023-10-13T02:01:36;36.17;;;16.98;;
79585;SDS011;69054;50.866;4.636;2023-10-13T02:04:02;31.50;;;17.13;;
79585;SDS011;69054;50.866;4.636;2023-10-13T02:06:32;34.10;;;16.38;;
79585;SDS011;69054;50.866;4.636;2023-10-13T02:09:00;33.92;;;15.82;;
79585;SDS011;69054;50.866;4.636;2023-10-13T02:11:42;30.13;;;14.95;;
79585;SDS011;69054;50.866;4.636;2023-10-13T02:14:11;30.83;;;15.35;;
79585;SDS011;69054;50.866;4.636;2023-10-13T02:16:37;31.98;;;15.55;;
79585;SDS011;69054;50.866;4.636;2023-10-13T02:19:04;27.42;;;15.32;;
79585;SDS011;69054;50.866;4.636;2023-10-13T02:21:32;29.65;;;14.75;;
79585;SDS011;69054;50.866;4.636;2023-10-13T02:24:04;27.88;;;13.30;;
79585;SDS011;69054;50.866;4.636;2023-10-13T02:26:40;25.88;;;13.05;;
79585;SDS011;69054;50.866;4.636;2023-10-13T02:29:06;29.70;;;14.00;;
79585;SDS011;69054;50.866;4.636;2023-10-13T02:31:43;27.83;;;14.05;;
79585;SDS011;69054;50.866;4.636;2023-10-13T02:34:29;29.73;;;14.55;;
79585;SDS011;69054;50.866;4.636;2023-10-13T02:36:56;27.58;;;13.40;;
79585;SDS011;69054;50.866;4.636;2023-10-13T02:39:22;26.83;;;14.25;;
79585;SDS011;69054;50.866;4.636;2023-10-13T02:41:53;28.65;;;13.10;;
79585;SDS011;69054;50.866;4.636;2023-10-13T02:44:20;28.85;;;14.07;;
79585;SDS011;69054;50.866;4.636;2023-10-13T02:46:54;27.52;;;13.52;;
79585;SDS011;69054;50.866;4.636;2023-10-13T02:49:21;26.02;;;12.18;;
79585;SDS011;69054;50.866;4.636;2023-10-13T02:51:59;26.83;;;13.95;;
79585;SDS011;69054;50.866;4.636;2023-10-13T02:54:30;22.65;;;12.90;;
79585;SDS011;69054;50.866;4.636;2023-10-13T02:56:56;27.17;;;12.18;;
79585;SDS011;69054;50.866;4.636;2023-10-13T02:59:26;24.02;;;13.70;;
79585;SDS011;69054;50.866;4.636;2023-10-13T03:02:10;25.27;;;13.43;;
79585;SDS011;69054;50.866;4.636;2023-10-13T03:04:54;25.88;;;12.55;;
79585;SDS011;69054;50.866;4.636;2023-10-13T03:07:27;21.88;;;11.30;;
79585;SDS011;69054;50.866;4.636;2023-10-13T03:09:54;22.52;;;12.07;;
79585;SDS011;69054;50.866;4.636;2023-10-13T03:12:24;21.73;;;11.63;;
79585;SDS011;69054;50.866;4.636;2023-10-13T03:14:50;24.80;;;12.75;;
79585;SDS011;69054;50.866;4.636;2023-10-13T03:17:22;20.45;;;11.25;;
79585;SDS011;69054;50.866;4.636;2023-10-13T03:19:59;22.10;;;11.93;;
79585;SDS011;69054;50.866;4.636;2023-10-13T03:22:25;23.02;;;11.32;;
79585;SDS011;69054;50.866;4.636;2023-10-13T03:24:58;21.92;;;12.07;;
79585;SDS011;69054;50.866;4.636;2023-10-13T03:27:38;21.75;;;11.35;;
79585;SDS011;69054;50.866;4.636;2023-10-13T03:30:27;26.67;;;10.35;;
79585;SDS011;69054;50.866;4.636;2023-10-13T03:33:01;22.23;;;11.18;;
79585;SDS011;69054;50.866;4.636;2023-10-13T03:35:31;24.13;;;11.52;;
79585;SDS011;69054;50.866;4.636;2023-10-13T03:38:09;24.55;;;11.45;;
79585;SDS011;69054;50.866;4.636;2023-10-13T03:40:44;21.83;;;11.50;;
79585;SDS011;69054;50.866;4.636;2023-10-13T03:43:14;22.25;;;11.25;;
79585;SDS011;69054;50.866;4.636;2023-10-13T03:45:46;22.73;;;10.50;;
79585;SDS011;69054;50.866;4.636;2023-10-13T03:48:17;24.60;;;12.05;;
79585;SDS011;69054;50.866;4.636;2023-10-13T03:50:49;25.70;;;10.90;;
79585;SDS011;69054;50.866;4.636;2023-10-13T03:53:47;22.92;;;10.57;;
79585;SDS011;69054;50.866;4.636;2023-10-13T03:56:18;19.75;;;9.43;;
79585;SDS011;69054;50.866;4.636;2023-10-13T03:59:14;19.30;;;10.35;;
79585;SDS011;69054;50.866;4.636;2023-10-13T04:01:39;24.63;;;9.75;;
79585;SDS011;69054;50.866;4.636;2023-10-13T04:04:08;17.13;;;10.07;;
79585;SDS011;69054;50.866;4.636;2023-10-13T04:06:36;18.08;;;9.20;;
79585;SDS011;69054;50.866;4.636;2023-10-13T04:09:14;19.83;;;9.50;;
79585;SDS011;69054;50.866;4.636;2023-10-13T04:11:58;18.00;;;8.50;;
79585;SDS011;69054;50.866;4.636;2023-10-13T04:14:31;17.35;;;7.38;;
79585;SDS011;69054;50.866;4.636;2023-10-13T04:17:17;15.93;;;8.27;;
79585;SDS011;69054;50.866;4.636;2023-10-13T04:19:49;12.05;;;6.60;;
79585;SDS011;69054;50.866;4.636;2023-10-13T04:22:34;14.90;;;7.55;;
79585;SDS011;69054;50.866;4.636;2023-10-13T04:25:13;18.92;;;7.93;;
79585;SDS011;69054;50.866;4.636;2023-10-13T04:30:37;11.77;;;6.72;;
79585;SDS011;69054;50.866;4.636;2023-10-13T04:33:15;15.10;;;6.93;;
79585;SDS011;69054;50.866;4.636;2023-10-13T04:35:42;12.65;;;6.50;;
79585;SDS011;69054;50.866;4.636;2023-10-13T04:38:13;15.93;;;8.10;;
79585;SDS011;69054;50.866;4.636;2023-10-13T04:40:45;15.98;;;7.88;;
79585;SDS011;69054;50.866;4.636;2023-10-13T04:43:24;19.73;;;8.10;;
79585;SDS011;69054;50.866;4.636;2023-10-13T04:46:09;18.67;;;8.35;;
79585;SDS011;69054;50.866;4.636;2023-10-13T04:49:00;15.68;;;8.25;;
79585;SDS011;69054;50.866;4.636;2023-10-13T04:51:32;15.88;;;6.53;;
79585;SDS011;69054;50.866;4.636;2023-10-13T04:54:33;14.32;;;6.88;;
79585;SDS011;69054;50.866;4.636;2023-10-13T04:57:00;15.13;;;7.00;;
79585;SDS011;69054;50.866;4.636;2023-10-13T04:59:47;13.13;;;7.07;;
79585;SDS011;69054;50.866;4.636;2023-10-13T05:02:31;17.20;;;7.00;;
79585;SDS011;69054;50.866;4.636;2023-10-13T05:05:01;14.25;;;7.38;;
79585;SDS011;69054;50.866;4.636;2023-10-13T05:07:51;17.92;;;7.47;;
79585;SDS011;69054;50.866;4.636;2023-10-13T05:10:35;15.82;;;7.20;;
79585;SDS011;69054;50.866;4.636;2023-10-13T05:13:20;17.17;;;7.28;;
79585;SDS011;69054;50.866;4.636;2023-10-13T05:16:05;16.92;;;7.70;;
79585;SDS011;69054;50.866;4.636;2023-10-13T05:18:49;16.13;;;7.28;;
79585;SDS011;69054;50.866;4.636;2023-10-13T05:21:33;16.95;;;7.57;;
79585;SDS011;69054;50.866;4.636;2023-10-13T05:24:17;14.93;;;6.47;;
79585;SDS011;69054;50.866;4.636;2023-10-13T05:27:01;12.15;;;6.95;;
79585;SDS011;69054;50.866;4.636;2023-10-13T05:29:46;17.90;;;7.90;;
79585;SDS011;69054;50.866;4.636;2023-10-13T05:32:31;14.55;;;7.40;;
79585;SDS011;69054;50.866;4.636;2023-10-13T05:35:15;17.20;;;7.75;;
79585;SDS011;69054;50.866;4.636;2023-10-13T05:38:01;17.92;;;7.95;;
79585;SDS011;69054;50.866;4.636;2023-10-13T05:41:19;18.20;;;7.90;;
79585;SDS011;69054;50.866;4.636;2023-10-13T05:43:55;19.65;;;8.25;;
79585;SDS011;69054;50.866;4.636;2023-10-13T05:46:39;15.15;;;6.60;;
79585;SDS011;69054;50.866;4.636;2023-10-13T05:49:05;14.55;;;6.90;;
79585;SDS011;69054;50.866;4.636;2023-10-13T05:51:41;18.70;;;8.25;;
79585;SDS011;69054;50.866;4.636;2023-10-13T05:54:24;18.55;;;7.47;;
79585;SDS011;69054;50.866;4.636;2023-10-13T05:57:09;18.98;;;7.78;;
79585;SDS011;69054;50.866;4.636;2023-10-13T05:59:53;15.40;;;7.47;;
79585;SDS011;69054;50.866;4.636;2023-10-13T06:02:37;17.15;;;7.72;;
79585;SDS011;69054;50.866;4.636;2023-10-13T06:05:21;14.57;;;7.32;;
79585;SDS011;69054;50.866;4.636;2023-10-13T06:08:05;17.23;;;7.57;;
79585;SDS011;69054;50.866;4.636;2023-10-13T06:10:49;16.88;;;7.38;;
79585;SDS011;69054;50.866;4.636;2023-10-13T06:13:33;15.70;;;7.32;;
79585;SDS011;69054;50.866;4.636;2023-10-13T06:16:17;13.93;;;6.85;;
79585;SDS011;69054;50.866;4.636;2023-10-13T06:19:02;17.02;;;6.97;;
79585;SDS011;69054;50.866;4.636;2023-10-13T06:21:46;13.82;;;6.53;;
79585;SDS011;69054;50.866;4.636;2023-10-13T06:24:30;15.82;;;6.78;;
79585;SDS011;69054;50.866;4.636;2023-10-13T06:27:15;14.38;;;6.97;;
79585;SDS011;69054;50.866;4.636;2023-10-13T06:29:59;17.17;;;6.47;;
79585;SDS011;69054;50.866;4.636;2023-10-13T06:32:26;11.75;;;6.35;;
79585;SDS011;69054;50.866;4.636;2023-10-13T06:34:55;17.52;;;6.90;;
79585;SDS011;69054;50.866;4.636;2023-10-13T06:37:30;18.38;;;5.80;;
79585;SDS011;69054;50.866;4.636;2023-10-13T06:39:58;15.98;;;6.63;;
79585;SDS011;69054;50.866;4.636;2023-10-13T06:42:31;14.32;;;7.30;;
79585;SDS011;69054;50.866;4.636;2023-10-13T06:45:00;15.65;;;7.38;;
79585;SDS011;69054;50.866;4.636;2023-10-13T06:47:33;12.25;;;6.28;;
79585;SDS011;69054;50.866;4.636;2023-10-13T06:50:17;14.05;;;6.03;;
79585;SDS011;69054;50.866;4.636;2023-10-13T06:52:49;16.50;;;6.10;;
79585;SDS011;69054;50.866;4.636;2023-10-13T06:55:16;8.70;;;4.82;;
79585;SDS011;69054;50.866;4.636;2023-10-13T06:57:53;14.93;;;6.05;;
79585;SDS011;69054;50.866;4.636;2023-10-13T07:00:24;16.15;;;6.68;;
79585;SDS011;69054;50.866;4.636;2023-10-13T07:03:13;15.05;;;6.85;;
79585;SDS011;69054;50.866;4.636;2023-10-13T07:05:45;11.32;;;5.85;;
79585;SDS011;69054;50.866;4.636;2023-10-13T07:08:14;15.13;;;5.28;;
79585;SDS011;69054;50.866;4.636;2023-10-13T07:10:48;13.30;;;6.50;;
79585;SDS011;69054;50.866;4.636;2023-10-13T07:13:28;13.05;;;6.80;;
79585;SDS011;69054;50.866;4.636;2023-10-13T07:15:56;12.65;;;5.90;;
79585;SDS011;69054;50.866;4.636;2023-10-13T07:18:30;13.38;;;5.20;;
79585;SDS011;69054;50.866;4.636;2023-10-13T07:21:02;14.43;;;6.07;;
79585;SDS011;69054;50.866;4.636;2023-10-13T07:23:35;12.32;;;5.40;;
79585;SDS011;69054;50.866;4.636;2023-10-13T07:26:01;10.77;;;5.60;;
79585;SDS011;69054;50.866;4.636;2023-10-13T07:28:29;13.38;;;6.38;;
79585;SDS011;69054;50.866;4.636;2023-10-13T07:30:56;11.63;;;5.68;;
79585;SDS011;69054;50.866;4.636;2023-10-13T07:33:25;12.63;;;5.55;;
79585;SDS011;69054;50.866;4.636;2023-10-13T07:36:04;11.30;;;5.70;;
79585;SDS011;69054;50.866;4.636;2023-10-13T07:38:53;13.27;;;5.75;;
79585;SDS011;69054;50.866;4.636;2023-10-13T07:41:45;9.80;;;5.25;;
79585;SDS011;69054;50.866;4.636;2023-10-13T07:44:16;13.43;;;4.93;;
79585;SDS011;69054;50.866;4.636;2023-10-13T07:46:45;11.60;;;5.00;;
79585;SDS011;69054;50.866;4.636;2023-10-13T07:49:14;12.63;;;5.57;;
79585;SDS011;69054;50.866;4.636;2023-10-13T07:51:40;11.65;;;5.47;;
79585;SDS011;69054;50.866;4.636;2023-10-13T07:54:14;12.90;;;5.50;;
79585;SDS011;69054;50.866;4.636;2023-10-13T07:56:47;9.65;;;5.32;;
79585;SDS011;69054;50.866;4.636;2023-10-13T07:59:13;9.93;;;6.03;;
79585;SDS011;69054;50.866;4.636;2023-10-13T08:01:46;9.80;;;5.70;;
79585;SDS011;69054;50.866;4.636;2023-10-13T08:04:12;13.60;;;6.05;;
79585;SDS011;69054;50.866;4.636;2023-10-13T08:06:37;11.90;;;5.93;;
79585;SDS011;69054;50.866;4.636;2023-10-13T08:09:05;11.52;;;5.43;;
79585;SDS011;69054;50.866;4.636;2023-10-13T08:11:33;8.15;;;5.30;;
79585;SDS011;69054;50.866;4.636;2023-10-13T08:14:05;14.65;;;5.82;;
79585;SDS011;69054;50.866;4.636;2023-10-13T08:16:40;10.35;;;5.63;;
79585;SDS011;69054;50.866;4.636;2023-10-13T08:19:29;13.07;;;5.10;;
79585;SDS011;69054;50.866;4.636;2023-10-13T08:22:10;8.82;;;5.00;;
79585;SDS011;69054;50.866;4.636;2023-10-13T08:24:46;13.15;;;5.22;;
79585;SDS011;69054;50.866;4.636;2023-10-13T08:27:12;10.75;;;5.40;;
79585;SDS011;69054;50.866;4.636;2023-10-13T08:29:39;13.40;;;6.28;;
79585;SDS011;69054;50.866;4.636;2023-10-13T08:32:29;13.10;;;6.47;;
79585;SDS011;69054;50.866;4.636;2023-10-13T08:34:58;11.43;;;5.75;;
79585;SDS011;69054;50.866;4.636;2023-10-13T08:37:31;9.73;;;5.30;;
79585;SDS011;69054;50.866;4.636;2023-10-13T08:40:13;11.05;;;5.35;;
79585;SDS011;69054;50.866;4.636;2023-10-13T08:42:57;11.07;;;5.82;;
79585;SDS011;69054;50.866;4.636;2023-10-13T08:45:28;11.70;;;5.65;;
79585;SDS011;69054;50.866;4.636;2023-10-13T08:47:56;12.65;;;5.78;;
79585;SDS011;69054;50.866;4.636;2023-10-13T08:50:35;11.93;;;6.25;;
79585;SDS011;69054;50.866;4.636;2023-10-13T08:58:48;12.35;;;5.65;;
79585;SDS011;69054;50.866;4.636;2023-10-13T09:01:18;11.02;;;5.10;;
79585;SDS011;69054;50.866;4.636;2023-10-13T09:04:06;8.77;;;5.35;;
